sensor_id;sensor_type;location;lat;lon;timestamp;P1;durP1;ratioP1;P2;durP2;ratioP2
9436;SDS011;4757;59.334;18.034;2023-02-28T00:01:08;1.13;;;1.03;;
9436;SDS011;4757;59.334;18.034;2023-02-28T00:03:35;0.77;;;0.73;;
9436;SDS011;4757;59.334;18.034;2023-02-28T00:06:03;1.50;;;1.40;;
9436;SDS011;4757;59.334;18.034;2023-02-28T00:08:32;0.90;;;0.90;;
9436;SDS011;4757;59.334;18.034;2023-02-28T00:11:03;1.57;;;1.13;;
9436;SDS011;4757;59.334;18.034;2023-02-28T00:13:33;1.10;;;1.00;;
9436;SDS011;4757;59.334;18.034;2023-02-28T00:16:14;1.13;;;1.03;;
9436;SDS011;4757;59.334;18.034;2023-02-28T00:18:43;0.80;;;0.80;;
9436;SDS011;4757;59.334;18.034;2023-02-28T00:21:11;1.03;;;0.90;;
9436;SDS011;4757;59.334;18.034;2023-02-28T00:23:38;1.30;;;1.20;;
9436;SDS011;4757;59.334;18.034;2023-02-28T00:26:05;1.03;;;0.80;;
9436;SDS011;4757;59.334;18.034;2023-02-28T00:28:32;1.83;;;0.97;;
9436;SDS011;4757;59.334;18.034;2023-02-28T00:31:00;2.13;;;1.10;;
9436;SDS011;4757;59.334;18.034;2023-02-28T00:33:27;0.97;;;0.87;;
9436;SDS011;4757;59.334;18.034;2023-02-28T00:36:05;1.07;;;1.00;;
9436;SDS011;4757;59.334;18.034;2023-02-28T00:38:34;2.00;;;0.97;;
9436;SDS011;4757;59.334;18.034;2023-02-28T00:41:02;1.90;;;1.53;;
9436;SDS011;4757;59.334;18.034;2023-02-28T00:43:36;1.40;;;0.83;;
9436;SDS011;4757;59.334;18.034;2023-02-28T00:46:05;0.90;;;0.90;;
9436;SDS011;4757;59.334;18.034;2023-02-28T00:48:33;1.03;;;0.93;;
9436;SDS011;4757;59.334;18.034;2023-02-28T00:51:00;0.83;;;0.80;;
9436;SDS011;4757;59.334;18.034;2023-02-28T00:53:29;0.93;;;0.83;;
9436;SDS011;4757;59.334;18.034;2023-02-28T00:55:58;1.70;;;0.87;;
9436;SDS011;4757;59.334;18.034;2023-02-28T00:58:27;1.07;;;0.93;;
9436;SDS011;4757;59.334;18.034;2023-02-28T01:00:54;0.90;;;0.90;;
9436;SDS011;4757;59.334;18.034;2023-02-28T01:03:22;0.97;;;0.87;;
9436;SDS011;4757;59.334;18.034;2023-02-28T01:05:49;1.20;;;0.80;;
9436;SDS011;4757;59.334;18.034;2023-02-28T01:08:17;0.90;;;0.90;;
9436;SDS011;4757;59.334;18.034;2023-02-28T01:10:47;1.13;;;0.80;;
9436;SDS011;4757;59.334;18.034;2023-02-28T01:13:14;0.87;;;0.87;;
9436;SDS011;4757;59.334;18.034;2023-02-28T01:15:42;0.90;;;0.80;;
9436;SDS011;4757;59.334;18.034;2023-02-28T01:18:12;3.43;;;0.97;;
9436;SDS011;4757;59.334;18.034;2023-02-28T01:20:39;1.53;;;1.10;;
9436;SDS011;4757;59.334;18.034;2023-02-28T01:23:07;1.13;;;0.83;;
9436;SDS011;4757;59.334;18.034;2023-02-28T01:25:37;0.70;;;0.70;;
9436;SDS011;4757;59.334;18.034;2023-02-28T01:28:04;1.00;;;0.70;;
9436;SDS011;4757;59.334;18.034;2023-02-28T01:30:32;0.80;;;0.80;;
9436;SDS011;4757;59.334;18.034;2023-02-28T01:32:59;0.77;;;0.77;;
9436;SDS011;4757;59.334;18.034;2023-02-28T01:35:26;0.70;;;0.70;;
9436;SDS011;4757;59.334;18.034;2023-02-28T01:37:54;0.80;;;0.80;;
9436;SDS011;4757;59.334;18.034;2023-02-28T01:40:29;1.30;;;0.93;;
9436;SDS011;4757;59.334;18.034;2023-02-28T01:42:58;0.60;;;0.60;;
9436;SDS011;4757;59.334;18.034;2023-02-28T01:45:27;0.70;;;0.70;;
9436;SDS011;4757;59.334;18.034;2023-02-28T01:47:58;0.80;;;0.80;;
9436;SDS011;4757;59.334;18.034;2023-02-28T01:50:31;1.33;;;1.23;;
9436;SDS011;4757;59.334;18.034;2023-02-28T01:53:02;1.60;;;0.87;;
9436;SDS011;4757;59.334;18.034;2023-02-28T01:55:34;2.53;;;1.00;;
9436;SDS011;4757;59.334;18.034;2023-02-28T01:58:04;1.43;;;0.80;;
9436;SDS011;4757;59.334;18.034;2023-02-28T02:00:33;0.90;;;0.70;;
9436;SDS011;4757;59.334;18.034;2023-02-28T02:03:11;3.27;;;1.10;;
9436;SDS011;4757;59.334;18.034;2023-02-28T02:05:42;1.17;;;1.00;;
9436;SDS011;4757;59.334;18.034;2023-02-28T02:08:18;0.60;;;0.60;;
9436;SDS011;4757;59.334;18.034;2023-02-28T02:11:00;3.13;;;0.90;;
9436;SDS011;4757;59.334;18.034;2023-02-28T02:18:46;1.93;;;0.93;;
9436;SDS011;4757;59.334;18.034;2023-02-28T02:35:11;0.70;;;0.70;;
9436;SDS011;4757;59.334;18.034;2023-02-28T02:37:42;0.70;;;0.70;;
9436;SDS011;4757;59.334;18.034;2023-02-28T02:40:15;1.30;;;0.73;;
9436;SDS011;4757;59.334;18.034;2023-02-28T02:43:03;0.83;;;0.67;;
9436;SDS011;4757;59.334;18.034;2023-02-28T02:45:52;1.33;;;0.57;;
9436;SDS011;4757;59.334;18.034;2023-02-28T02:48:24;0.63;;;0.63;;
9436;SDS011;4757;59.334;18.034;2023-02-28T02:50:56;0.80;;;0.80;;
9436;SDS011;4757;59.334;18.034;2023-02-28T02:53:30;1.00;;;0.90;;
9436;SDS011;4757;59.334;18.034;2023-02-28T02:56:01;0.60;;;0.60;;
9436;SDS011;4757;59.334;18.034;2023-02-28T02:58:31;0.70;;;0.70;;
9436;SDS011;4757;59.334;18.034;2023-02-28T03:01:02;0.60;;;0.60;;
9436;SDS011;4757;59.334;18.034;2023-02-28T03:03:31;0.70;;;0.70;;
9436;SDS011;4757;59.334;18.034;2023-02-28T03:06:00;0.60;;;0.60;;
9436;SDS011;4757;59.334;18.034;2023-02-28T03:08:30;0.97;;;0.80;;
9436;SDS011;4757;59.334;18.034;2023-02-28T03:11:02;0.60;;;0.60;;
9436;SDS011;4757;59.334;18.034;2023-02-28T03:20:05;1.23;;;0.60;;
9436;SDS011;4757;59.334;18.034;2023-02-28T03:22:49;0.70;;;0.70;;
9436;SDS011;4757;59.334;18.034;2023-02-28T03:25:32;0.77;;;0.73;;
9436;SDS011;4757;59.334;18.034;2023-02-28T03:33:51;0.60;;;0.60;;
9436;SDS011;4757;59.334;18.034;2023-02-28T03:36:29;0.60;;;0.60;;
9436;SDS011;4757;59.334;18.034;2023-02-28T03:39:06;1.00;;;0.93;;
9436;SDS011;4757;59.334;18.034;2023-02-28T03:41:36;0.57;;;0.50;;
9436;SDS011;4757;59.334;18.034;2023-02-28T03:44:13;1.10;;;1.00;;
9436;SDS011;4757;59.334;18.034;2023-02-28T03:46:58;1.47;;;0.80;;
9436;SDS011;4757;59.334;18.034;2023-02-28T03:49:32;1.10;;;0.80;;
9436;SDS011;4757;59.334;18.034;2023-02-28T03:52:12;0.70;;;0.70;;
9436;SDS011;4757;59.334;18.034;2023-02-28T03:54:50;0.80;;;0.60;;
9436;SDS011;4757;59.334;18.034;2023-02-28T03:57:27;0.80;;;0.80;;
9436;SDS011;4757;59.334;18.034;2023-02-28T04:02:40;0.57;;;0.57;;
9436;SDS011;4757;59.334;18.034;2023-02-28T04:05:07;0.60;;;0.60;;
9436;SDS011;4757;59.334;18.034;2023-02-28T04:07:35;0.63;;;0.63;;
9436;SDS011;4757;59.334;18.034;2023-02-28T04:10:03;0.73;;;0.63;;
9436;SDS011;4757;59.334;18.034;2023-02-28T04:12:30;0.60;;;0.60;;
9436;SDS011;4757;59.334;18.034;2023-02-28T04:14:57;0.90;;;0.70;;
9436;SDS011;4757;59.334;18.034;2023-02-28T04:17:24;0.50;;;0.50;;
9436;SDS011;4757;59.334;18.034;2023-02-28T04:19:52;0.50;;;0.50;;
9436;SDS011;4757;59.334;18.034;2023-02-28T04:22:20;0.70;;;0.70;;
9436;SDS011;4757;59.334;18.034;2023-02-28T04:24:47;0.97;;;0.60;;
9436;SDS011;4757;59.334;18.034;2023-02-28T04:27:14;0.87;;;0.73;;
9436;SDS011;4757;59.334;18.034;2023-02-28T04:29:42;0.70;;;0.70;;
9436;SDS011;4757;59.334;18.034;2023-02-28T04:32:10;1.07;;;0.70;;
9436;SDS011;4757;59.334;18.034;2023-02-28T04:34:38;0.80;;;0.80;;
9436;SDS011;4757;59.334;18.034;2023-02-28T04:37:05;0.80;;;0.80;;
9436;SDS011;4757;59.334;18.034;2023-02-28T04:39:39;0.80;;;0.80;;
9436;SDS011;4757;59.334;18.034;2023-02-28T04:42:07;0.50;;;0.50;;
9436;SDS011;4757;59.334;18.034;2023-02-28T04:44:34;0.63;;;0.60;;
9436;SDS011;4757;59.334;18.034;2023-02-28T04:47:01;0.63;;;0.63;;
9436;SDS011;4757;59.334;18.034;2023-02-28T04:49:28;0.70;;;0.70;;
9436;SDS011;4757;59.334;18.034;2023-02-28T04:51:56;0.60;;;0.60;;
9436;SDS011;4757;59.334;18.034;2023-02-28T04:54:23;0.70;;;0.70;;
9436;SDS011;4757;59.334;18.034;2023-02-28T04:56:51;1.00;;;0.70;;
9436;SDS011;4757;59.334;18.034;2023-02-28T04:59:18;0.80;;;0.80;;
9436;SDS011;4757;59.334;18.034;2023-02-28T05:01:46;0.87;;;0.60;;
9436;SDS011;4757;59.334;18.034;2023-02-28T05:04:14;2.03;;;0.67;;
9436;SDS011;4757;59.334;18.034;2023-02-28T05:06:41;2.43;;;0.93;;
9436;SDS011;4757;59.334;18.034;2023-02-28T05:09:08;0.67;;;0.67;;
9436;SDS011;4757;59.334;18.034;2023-02-28T05:11:38;0.97;;;0.87;;
9436;SDS011;4757;59.334;18.034;2023-02-28T05:14:08;0.77;;;0.77;;
9436;SDS011;4757;59.334;18.034;2023-02-28T05:16:38;0.80;;;0.70;;
9436;SDS011;4757;59.334;18.034;2023-02-28T05:19:05;1.97;;;0.70;;
9436;SDS011;4757;59.334;18.034;2023-02-28T05:21:34;0.67;;;0.67;;
9436;SDS011;4757;59.334;18.034;2023-02-28T05:24:10;0.53;;;0.53;;
9436;SDS011;4757;59.334;18.034;2023-02-28T05:26:42;1.20;;;0.80;;
9436;SDS011;4757;59.334;18.034;2023-02-28T05:29:09;1.87;;;0.70;;
9436;SDS011;4757;59.334;18.034;2023-02-28T05:31:36;0.70;;;0.70;;
9436;SDS011;4757;59.334;18.034;2023-02-28T05:34:04;0.63;;;0.60;;
9436;SDS011;4757;59.334;18.034;2023-02-28T05:36:32;0.50;;;0.50;;
9436;SDS011;4757;59.334;18.034;2023-02-28T05:38:59;1.37;;;1.10;;
9436;SDS011;4757;59.334;18.034;2023-02-28T05:41:27;3.50;;;1.20;;
9436;SDS011;4757;59.334;18.034;2023-02-28T05:43:55;1.30;;;0.90;;
9436;SDS011;4757;59.334;18.034;2023-02-28T05:46:26;1.00;;;0.90;;
9436;SDS011;4757;59.334;18.034;2023-02-28T05:48:53;0.80;;;0.80;;
9436;SDS011;4757;59.334;18.034;2023-02-28T05:51:22;2.03;;;1.00;;
9436;SDS011;4757;59.334;18.034;2023-02-28T05:53:49;0.90;;;0.90;;
9436;SDS011;4757;59.334;18.034;2023-02-28T05:56:16;0.90;;;0.77;;
9436;SDS011;4757;59.334;18.034;2023-02-28T05:58:43;1.13;;;1.03;;
9436;SDS011;4757;59.334;18.034;2023-02-28T06:01:22;1.10;;;0.80;;
9436;SDS011;4757;59.334;18.034;2023-02-28T06:03:59;0.70;;;0.70;;
9436;SDS011;4757;59.334;18.034;2023-02-28T06:06:30;0.80;;;0.73;;
9436;SDS011;4757;59.334;18.034;2023-02-28T06:09:00;4.30;;;1.03;;
9436;SDS011;4757;59.334;18.034;2023-02-28T06:11:28;1.00;;;0.83;;
9436;SDS011;4757;59.334;18.034;2023-02-28T06:13:56;1.60;;;1.00;;
9436;SDS011;4757;59.334;18.034;2023-02-28T06:16:29;0.70;;;0.70;;
9436;SDS011;4757;59.334;18.034;2023-02-28T06:19:01;1.40;;;1.00;;
9436;SDS011;4757;59.334;18.034;2023-02-28T06:21:29;1.43;;;1.07;;
9436;SDS011;4757;59.334;18.034;2023-02-28T06:23:58;1.17;;;0.80;;
9436;SDS011;4757;59.334;18.034;2023-02-28T06:26:26;1.00;;;0.90;;
9436;SDS011;4757;59.334;18.034;2023-02-28T06:28:53;2.40;;;0.80;;
9436;SDS011;4757;59.334;18.034;2023-02-28T06:31:21;1.00;;;0.90;;
9436;SDS011;4757;59.334;18.034;2023-02-28T06:33:49;4.63;;;1.10;;
9436;SDS011;4757;59.334;18.034;2023-02-28T06:36:17;1.30;;;0.90;;
9436;SDS011;4757;59.334;18.034;2023-02-28T06:38:45;1.03;;;0.90;;
9436;SDS011;4757;59.334;18.034;2023-02-28T06:41:12;0.90;;;0.90;;
9436;SDS011;4757;59.334;18.034;2023-02-28T06:43:40;1.37;;;0.90;;
9436;SDS011;4757;59.334;18.034;2023-02-28T06:46:09;1.17;;;0.90;;
9436;SDS011;4757;59.334;18.034;2023-02-28T06:48:40;3.77;;;1.13;;
9436;SDS011;4757;59.334;18.034;2023-02-28T06:51:11;2.43;;;1.50;;
9436;SDS011;4757;59.334;18.034;2023-02-28T06:53:41;3.73;;;1.50;;
9436;SDS011;4757;59.334;18.034;2023-02-28T06:56:12;1.10;;;1.00;;
9436;SDS011;4757;59.334;18.034;2023-02-28T06:58:41;1.20;;;0.80;;
9436;SDS011;4757;59.334;18.034;2023-02-28T07:01:18;1.30;;;1.20;;
9436;SDS011;4757;59.334;18.034;2023-02-28T07:03:46;3.23;;;0.93;;
9436;SDS011;4757;59.334;18.034;2023-02-28T07:06:13;1.40;;;0.80;;
9436;SDS011;4757;59.334;18.034;2023-02-28T07:08:40;1.50;;;1.00;;
9436;SDS011;4757;59.334;18.034;2023-02-28T07:11:08;0.90;;;0.90;;
9436;SDS011;4757;59.334;18.034;2023-02-28T07:13:36;0.90;;;0.90;;
9436;SDS011;4757;59.334;18.034;2023-02-28T07:16:04;1.60;;;0.90;;
9436;SDS011;4757;59.334;18.034;2023-02-28T07:18:34;1.57;;;1.10;;
9436;SDS011;4757;59.334;18.034;2023-02-28T07:21:02;2.20;;;0.80;;
9436;SDS011;4757;59.334;18.034;2023-02-28T07:23:31;1.50;;;1.10;;
9436;SDS011;4757;59.334;18.034;2023-02-28T07:25:58;1.83;;;1.25;;
9436;SDS011;4757;59.334;18.034;2023-02-28T07:28:26;4.13;;;1.13;;
9436;SDS011;4757;59.334;18.034;2023-02-28T07:30:53;2.37;;;1.97;;
9436;SDS011;4757;59.334;18.034;2023-02-28T07:33:20;0.60;;;0.60;;
9436;SDS011;4757;59.334;18.034;2023-02-28T07:35:47;1.90;;;1.00;;
9436;SDS011;4757;59.334;18.034;2023-02-28T07:38:15;0.80;;;0.80;;
9436;SDS011;4757;59.334;18.034;2023-02-28T07:40:42;1.93;;;1.40;;
9436;SDS011;4757;59.334;18.034;2023-02-28T07:43:09;1.43;;;1.10;;
9436;SDS011;4757;59.334;18.034;2023-02-28T07:45:37;3.07;;;1.03;;
9436;SDS011;4757;59.334;18.034;2023-02-28T07:48:04;2.23;;;1.73;;
9436;SDS011;4757;59.334;18.034;2023-02-28T07:50:32;2.07;;;0.90;;
9436;SDS011;4757;59.334;18.034;2023-02-28T07:52:59;2.47;;;1.33;;
9436;SDS011;4757;59.334;18.034;2023-02-28T07:55:26;1.20;;;1.00;;
9436;SDS011;4757;59.334;18.034;2023-02-28T07:57:54;1.10;;;1.00;;
9436;SDS011;4757;59.334;18.034;2023-02-28T08:00:24;1.03;;;0.90;;
9436;SDS011;4757;59.334;18.034;2023-02-28T08:02:51;0.93;;;0.70;;
9436;SDS011;4757;59.334;18.034;2023-02-28T08:05:19;3.50;;;0.97;;
9436;SDS011;4757;59.334;18.034;2023-02-28T08:07:48;1.23;;;0.93;;
9436;SDS011;4757;59.334;18.034;2023-02-28T08:10:17;2.30;;;0.90;;
9436;SDS011;4757;59.334;18.034;2023-02-28T08:12:44;2.43;;;0.80;;
9436;SDS011;4757;59.334;18.034;2023-02-28T08:15:11;0.80;;;0.80;;
9436;SDS011;4757;59.334;18.034;2023-02-28T08:17:38;1.37;;;1.00;;
9436;SDS011;4757;59.334;18.034;2023-02-28T08:20:06;1.00;;;0.93;;
9436;SDS011;4757;59.334;18.034;2023-02-28T08:22:36;2.10;;;1.00;;
9436;SDS011;4757;59.334;18.034;2023-02-28T08:25:03;4.43;;;0.93;;
9436;SDS011;4757;59.334;18.034;2023-02-28T08:27:34;3.60;;;1.10;;
9436;SDS011;4757;59.334;18.034;2023-02-28T08:30:04;1.00;;;0.90;;
9436;SDS011;4757;59.334;18.034;2023-02-28T08:32:34;1.47;;;0.83;;
9436;SDS011;4757;59.334;18.034;2023-02-28T08:35:01;0.90;;;0.90;;
9436;SDS011;4757;59.334;18.034;2023-02-28T08:37:30;0.90;;;0.80;;
9436;SDS011;4757;59.334;18.034;2023-02-28T08:39:57;0.80;;;0.80;;
9436;SDS011;4757;59.334;18.034;2023-02-28T08:42:24;1.57;;;0.90;;
9436;SDS011;4757;59.334;18.034;2023-02-28T08:44:51;5.20;;;1.40;;
9436;SDS011;4757;59.334;18.034;2023-02-28T08:47:19;0.73;;;0.73;;
9436;SDS011;4757;59.334;18.034;2023-02-28T08:49:46;2.23;;;1.17;;
9436;SDS011;4757;59.334;18.034;2023-02-28T08:52:14;2.40;;;1.63;;
9436;SDS011;4757;59.334;18.034;2023-02-28T08:54:41;0.97;;;0.77;;
9436;SDS011;4757;59.334;18.034;2023-02-28T08:57:08;0.57;;;0.57;;
9436;SDS011;4757;59.334;18.034;2023-02-28T08:59:36;0.80;;;0.80;;
9436;SDS011;4757;59.334;18.034;2023-02-28T09:02:03;3.53;;;0.80;;
9436;SDS011;4757;59.334;18.034;2023-02-28T09:04:30;1.73;;;1.20;;
9436;SDS011;4757;59.334;18.034;2023-02-28T09:06:58;0.67;;;0.67;;
9436;SDS011;4757;59.334;18.034;2023-02-28T09:09:25;1.20;;;0.90;;
9436;SDS011;4757;59.334;18.034;2023-02-28T09:11:52;0.80;;;0.80;;
9436;SDS011;4757;59.334;18.034;2023-02-28T09:14:22;2.40;;;0.90;;
9436;SDS011;4757;59.334;18.034;2023-02-28T09:16:49;1.27;;;0.80;;
9436;SDS011;4757;59.334;18.034;2023-02-28T09:19:17;1.57;;;1.30;;
9436;SDS011;4757;59.334;18.034;2023-02-28T09:21:44;3.03;;;1.03;;
9436;SDS011;4757;59.334;18.034;2023-02-28T09:24:11;2.63;;;1.20;;
9436;SDS011;4757;59.334;18.034;2023-02-28T09:26:40;2.50;;;1.00;;
9436;SDS011;4757;59.334;18.034;2023-02-28T09:29:16;0.97;;;0.80;;
9436;SDS011;4757;59.334;18.034;2023-02-28T09:31:44;3.83;;;0.97;;
9436;SDS011;4757;59.334;18.034;2023-02-28T09:34:12;0.97;;;0.87;;
9436;SDS011;4757;59.334;18.034;2023-02-28T09:36:39;0.93;;;0.80;;
9436;SDS011;4757;59.334;18.034;2023-02-28T09:39:11;3.90;;;1.30;;
9436;SDS011;4757;59.334;18.034;2023-02-28T09:41:42;4.00;;;1.03;;
9436;SDS011;4757;59.334;18.034;2023-02-28T09:44:28;1.70;;;1.27;;
9436;SDS011;4757;59.334;18.034;2023-02-28T09:47:05;1.57;;;1.17;;
9436;SDS011;4757;59.334;18.034;2023-02-28T09:49:37;3.03;;;0.70;;
9436;SDS011;4757;59.334;18.034;2023-02-28T09:52:12;1.20;;;0.80;;
9436;SDS011;4757;59.334;18.034;2023-02-28T09:54:43;1.33;;;1.23;;
9436;SDS011;4757;59.334;18.034;2023-02-28T09:57:15;3.13;;;1.23;;
9436;SDS011;4757;59.334;18.034;2023-02-28T09:59:48;0.93;;;0.93;;
9436;SDS011;4757;59.334;18.034;2023-02-28T10:05:27;2.73;;;0.97;;
9436;SDS011;4757;59.334;18.034;2023-02-28T10:10:58;3.17;;;1.17;;
9436;SDS011;4757;59.334;18.034;2023-02-28T10:13:36;2.27;;;1.00;;
9436;SDS011;4757;59.334;18.034;2023-02-28T10:18:56;2.97;;;1.40;;
9436;SDS011;4757;59.334;18.034;2023-02-28T10:21:39;1.70;;;1.00;;
9436;SDS011;4757;59.334;18.034;2023-02-28T10:27:12;7.67;;;1.30;;
9436;SDS011;4757;59.334;18.034;2023-02-28T10:29:43;1.67;;;1.10;;
9436;SDS011;4757;59.334;18.034;2023-02-28T10:32:13;3.70;;;1.20;;
9436;SDS011;4757;59.334;18.034;2023-02-28T10:34:51;5.90;;;1.60;;
9436;SDS011;4757;59.334;18.034;2023-02-28T10:37:24;2.17;;;0.80;;
9436;SDS011;4757;59.334;18.034;2023-02-28T10:39:58;0.80;;;0.80;;
9436;SDS011;4757;59.334;18.034;2023-02-28T10:42:26;1.53;;;1.03;;
9436;SDS011;4757;59.334;18.034;2023-02-28T10:45:04;3.30;;;1.50;;
9436;SDS011;4757;59.334;18.034;2023-02-28T10:47:42;5.97;;;1.43;;
9436;SDS011;4757;59.334;18.034;2023-02-28T10:50:29;11.53;;;1.40;;
9436;SDS011;4757;59.334;18.034;2023-02-28T10:56:05;10.87;;;1.37;;
9436;SDS011;4757;59.334;18.034;2023-02-28T11:01:39;3.03;;;1.00;;
9436;SDS011;4757;59.334;18.034;2023-02-28T11:04:19;5.17;;;1.00;;
9436;SDS011;4757;59.334;18.034;2023-02-28T11:07:09;3.70;;;0.80;;
9436;SDS011;4757;59.334;18.034;2023-02-28T11:09:56;6.70;;;1.20;;
9436;SDS011;4757;59.334;18.034;2023-02-28T11:12:26;7.20;;;1.03;;
9436;SDS011;4757;59.334;18.034;2023-02-28T11:14:58;4.60;;;1.30;;
9436;SDS011;4757;59.334;18.034;2023-02-28T11:17:30;13.40;;;3.13;;
9436;SDS011;4757;59.334;18.034;2023-02-28T11:20:01;11.80;;;1.30;;
9436;SDS011;4757;59.334;18.034;2023-02-28T11:22:35;4.13;;;1.53;;
9436;SDS011;4757;59.334;18.034;2023-02-28T11:25:09;6.63;;;1.40;;
9436;SDS011;4757;59.334;18.034;2023-02-28T11:27:48;11.90;;;2.00;;
9436;SDS011;4757;59.334;18.034;2023-02-28T11:30:23;5.60;;;1.13;;
9436;SDS011;4757;59.334;18.034;2023-02-28T11:32:53;5.10;;;1.40;;
9436;SDS011;4757;59.334;18.034;2023-02-28T11:35:26;6.50;;;1.37;;
9436;SDS011;4757;59.334;18.034;2023-02-28T11:38:09;8.73;;;1.27;;
9436;SDS011;4757;59.334;18.034;2023-02-28T11:40:43;1.93;;;1.17;;
9436;SDS011;4757;59.334;18.034;2023-02-28T11:43:17;14.07;;;1.80;;
9436;SDS011;4757;59.334;18.034;2023-02-28T11:46:13;2.93;;;0.80;;
9436;SDS011;4757;59.334;18.034;2023-02-28T11:52:05;14.97;;;2.53;;
9436;SDS011;4757;59.334;18.034;2023-02-28T11:54:52;8.03;;;1.90;;
9436;SDS011;4757;59.334;18.034;2023-02-28T11:57:33;11.53;;;2.30;;
9436;SDS011;4757;59.334;18.034;2023-02-28T12:00:18;7.17;;;1.53;;
9436;SDS011;4757;59.334;18.034;2023-02-28T12:06:28;10.67;;;1.80;;
9436;SDS011;4757;59.334;18.034;2023-02-28T12:11:27;13.43;;;1.70;;
9436;SDS011;4757;59.334;18.034;2023-02-28T12:14:18;8.53;;;2.17;;
9436;SDS011;4757;59.334;18.034;2023-02-28T12:16:55;25.57;;;4.13;;
9436;SDS011;4757;59.334;18.034;2023-02-28T12:22:12;5.83;;;1.67;;
9436;SDS011;4757;59.334;18.034;2023-02-28T12:27:33;5.13;;;1.80;;
9436;SDS011;4757;59.334;18.034;2023-02-28T12:30:16;9.30;;;1.93;;
9436;SDS011;4757;59.334;18.034;2023-02-28T12:36:02;1.97;;;0.77;;
9436;SDS011;4757;59.334;18.034;2023-02-28T12:38:40;6.03;;;1.00;;
9436;SDS011;4757;59.334;18.034;2023-02-28T12:41:40;8.83;;;2.10;;
9436;SDS011;4757;59.334;18.034;2023-02-28T12:47:02;9.50;;;1.30;;
9436;SDS011;4757;59.334;18.034;2023-02-28T12:49:33;2.50;;;1.00;;
9436;SDS011;4757;59.334;18.034;2023-02-28T12:52:05;7.93;;;1.87;;
9436;SDS011;4757;59.334;18.034;2023-02-28T12:54:53;13.93;;;1.90;;
9436;SDS011;4757;59.334;18.034;2023-02-28T12:57:58;6.67;;;2.33;;
9436;SDS011;4757;59.334;18.034;2023-02-28T13:06:38;8.57;;;1.43;;
9436;SDS011;4757;59.334;18.034;2023-02-28T13:09:12;24.17;;;2.93;;
9436;SDS011;4757;59.334;18.034;2023-02-28T13:11:43;6.43;;;1.50;;
9436;SDS011;4757;59.334;18.034;2023-02-28T13:14:28;10.97;;;2.00;;
9436;SDS011;4757;59.334;18.034;2023-02-28T13:17:03;17.50;;;3.07;;
9436;SDS011;4757;59.334;18.034;2023-02-28T13:19:45;14.60;;;2.47;;
9436;SDS011;4757;59.334;18.034;2023-02-28T13:22:40;7.17;;;1.57;;
9436;SDS011;4757;59.334;18.034;2023-02-28T13:27:50;7.10;;;1.87;;
9436;SDS011;4757;59.334;18.034;2023-02-28T13:36:27;5.33;;;1.00;;
9436;SDS011;4757;59.334;18.034;2023-02-28T13:38:59;11.23;;;1.67;;
9436;SDS011;4757;59.334;18.034;2023-02-28T13:43:59;5.23;;;1.77;;
9436;SDS011;4757;59.334;18.034;2023-02-28T13:46:27;8.10;;;1.63;;
9436;SDS011;4757;59.334;18.034;2023-02-28T13:48:55;6.30;;;1.40;;
9436;SDS011;4757;59.334;18.034;2023-02-28T13:51:39;3.87;;;1.70;;
9436;SDS011;4757;59.334;18.034;2023-02-28T13:54:52;6.60;;;1.73;;
9436;SDS011;4757;59.334;18.034;2023-02-28T14:05:21;20.10;;;2.40;;
9436;SDS011;4757;59.334;18.034;2023-02-28T14:07:53;4.87;;;1.30;;
9436;SDS011;4757;59.334;18.034;2023-02-28T14:10:45;5.43;;;1.20;;
9436;SDS011;4757;59.334;18.034;2023-02-28T14:13:38;6.87;;;1.30;;
9436;SDS011;4757;59.334;18.034;2023-02-28T14:16:14;5.70;;;1.40;;
9436;SDS011;4757;59.334;18.034;2023-02-28T14:18:49;14.27;;;2.00;;
9436;SDS011;4757;59.334;18.034;2023-02-28T14:21:25;4.27;;;1.40;;
9436;SDS011;4757;59.334;18.034;2023-02-28T14:36:03;14.77;;;2.63;;
9436;SDS011;4757;59.334;18.034;2023-02-28T14:41:36;3.07;;;0.97;;
9436;SDS011;4757;59.334;18.034;2023-02-28T14:44:22;20.23;;;2.50;;
9436;SDS011;4757;59.334;18.034;2023-02-28T14:46:55;18.27;;;2.67;;
9436;SDS011;4757;59.334;18.034;2023-02-28T14:52:06;25.87;;;3.17;;
9436;SDS011;4757;59.334;18.034;2023-02-28T14:54:46;18.40;;;3.37;;
9436;SDS011;4757;59.334;18.034;2023-02-28T15:02:33;5.27;;;1.60;;
9436;SDS011;4757;59.334;18.034;2023-02-28T15:05:10;10.07;;;2.40;;
9436;SDS011;4757;59.334;18.034;2023-02-28T15:07:44;31.00;;;2.83;;
9436;SDS011;4757;59.334;18.034;2023-02-28T15:12:59;20.17;;;1.93;;
9436;SDS011;4757;59.334;18.034;2023-02-28T15:18:35;9.73;;;1.90;;
9436;SDS011;4757;59.334;18.034;2023-02-28T15:21:16;4.23;;;1.50;;
9436;SDS011;4757;59.334;18.034;2023-02-28T15:23:52;8.47;;;1.50;;
9436;SDS011;4757;59.334;18.034;2023-02-28T15:26:25;13.73;;;2.07;;
9436;SDS011;4757;59.334;18.034;2023-02-28T15:29:07;5.73;;;1.97;;
9436;SDS011;4757;59.334;18.034;2023-02-28T15:31:46;5.73;;;2.50;;
9436;SDS011;4757;59.334;18.034;2023-02-28T15:34:27;12.73;;;3.70;;
9436;SDS011;4757;59.334;18.034;2023-02-28T15:37:26;6.33;;;1.90;;
9436;SDS011;4757;59.334;18.034;2023-02-28T15:48:34;8.23;;;1.97;;
9436;SDS011;4757;59.334;18.034;2023-02-28T15:51:08;6.50;;;1.77;;
9436;SDS011;4757;59.334;18.034;2023-02-28T15:56:39;6.73;;;1.87;;
9436;SDS011;4757;59.334;18.034;2023-02-28T15:59:20;6.33;;;1.87;;
9436;SDS011;4757;59.334;18.034;2023-02-28T16:02:29;4.37;;;2.00;;
9436;SDS011;4757;59.334;18.034;2023-02-28T16:05:12;11.83;;;2.47;;
9436;SDS011;4757;59.334;18.034;2023-02-28T16:07:45;2.57;;;1.40;;
9436;SDS011;4757;59.334;18.034;2023-02-28T16:10:15;7.23;;;1.93;;
9436;SDS011;4757;59.334;18.034;2023-02-28T16:12:44;6.30;;;1.80;;
9436;SDS011;4757;59.334;18.034;2023-02-28T16:15:35;8.00;;;1.87;;
9436;SDS011;4757;59.334;18.034;2023-02-28T16:18:10;5.03;;;1.80;;
9436;SDS011;4757;59.334;18.034;2023-02-28T16:20:38;4.17;;;2.00;;
9436;SDS011;4757;59.334;18.034;2023-02-28T16:23:11;3.00;;;1.50;;
9436;SDS011;4757;59.334;18.034;2023-02-28T16:25:40;5.00;;;1.20;;
9436;SDS011;4757;59.334;18.034;2023-02-28T16:28:12;5.10;;;2.47;;
9436;SDS011;4757;59.334;18.034;2023-02-28T16:30:46;12.93;;;1.80;;
9436;SDS011;4757;59.334;18.034;2023-02-28T16:33:13;8.57;;;1.63;;
9436;SDS011;4757;59.334;18.034;2023-02-28T16:35:41;8.20;;;1.53;;
9436;SDS011;4757;59.334;18.034;2023-02-28T16:42:13;4.80;;;2.23;;
9436;SDS011;4757;59.334;18.034;2023-02-28T16:44:48;11.90;;;2.77;;
9436;SDS011;4757;59.334;18.034;2023-02-28T16:47:16;8.20;;;2.57;;
9436;SDS011;4757;59.334;18.034;2023-02-28T16:49:43;13.13;;;2.50;;
9436;SDS011;4757;59.334;18.034;2023-02-28T16:52:14;5.10;;;2.00;;
9436;SDS011;4757;59.334;18.034;2023-02-28T16:55:35;19.00;;;2.67;;
9436;SDS011;4757;59.334;18.034;2023-02-28T16:58:10;12.83;;;4.27;;
9436;SDS011;4757;59.334;18.034;2023-02-28T17:00:51;10.97;;;2.23;;
9436;SDS011;4757;59.334;18.034;2023-02-28T17:03:25;6.27;;;1.97;;
9436;SDS011;4757;59.334;18.034;2023-02-28T17:05:59;6.63;;;2.20;;
9436;SDS011;4757;59.334;18.034;2023-02-28T17:08:27;15.13;;;2.50;;
9436;SDS011;4757;59.334;18.034;2023-02-28T17:10:55;10.87;;;4.40;;
9436;SDS011;4757;59.334;18.034;2023-02-28T17:13:22;6.70;;;2.47;;
9436;SDS011;4757;59.334;18.034;2023-02-28T17:15:49;4.43;;;1.83;;
9436;SDS011;4757;59.334;18.034;2023-02-28T17:18:17;10.33;;;2.40;;
9436;SDS011;4757;59.334;18.034;2023-02-28T17:20:47;5.03;;;2.40;;
9436;SDS011;4757;59.334;18.034;2023-02-28T17:23:15;9.43;;;3.07;;
9436;SDS011;4757;59.334;18.034;2023-02-28T17:25:42;10.67;;;2.80;;
9436;SDS011;4757;59.334;18.034;2023-02-28T17:28:22;11.67;;;2.60;;
9436;SDS011;4757;59.334;18.034;2023-02-28T17:30:50;5.63;;;2.20;;
9436;SDS011;4757;59.334;18.034;2023-02-28T17:33:17;13.27;;;2.20;;
9436;SDS011;4757;59.334;18.034;2023-02-28T17:35:44;14.60;;;2.80;;
9436;SDS011;4757;59.334;18.034;2023-02-28T17:38:14;10.93;;;2.60;;
9436;SDS011;4757;59.334;18.034;2023-02-28T17:40:51;6.90;;;2.67;;
9436;SDS011;4757;59.334;18.034;2023-02-28T17:43:39;12.40;;;2.30;;
9436;SDS011;4757;59.334;18.034;2023-02-28T17:46:10;13.07;;;3.20;;
9436;SDS011;4757;59.334;18.034;2023-02-28T17:48:44;10.83;;;2.60;;
9436;SDS011;4757;59.334;18.034;2023-02-28T17:51:12;10.27;;;3.20;;
9436;SDS011;4757;59.334;18.034;2023-02-28T17:53:39;16.20;;;3.37;;